createdAt,value
2019-06-08T00:01:02.246Z,88.60
2019-06-08T00:03:34.628Z,89.23
2019-06-08T00:06:06.679Z,88.65
2019-06-08T00:08:38.863Z,90.25
2019-06-08T00:11:10.983Z,90.27
2019-06-08T00:13:43.059Z,90.11
2019-06-08T00:16:15.309Z,89.52
2019-06-08T00:18:47.302Z,89.45
2019-06-08T00:21:19.685Z,89.04
2019-06-08T00:23:51.866Z,89.42
2019-06-08T00:26:24.423Z,89.46
2019-06-08T00:28:57.748Z,88.20
2019-06-08T00:31:29.889Z,88.75
2019-06-08T00:34:01.964Z,89.89
2019-06-08T00:36:34.272Z,90.34
2019-06-08T00:39:09.210Z,91.24
2019-06-08T00:41:40.559Z,90.50
2019-06-08T00:44:12.387Z,90.77
2019-06-08T00:46:45.657Z,90.72
2019-06-08T00:49:18.462Z,88.09
2019-06-08T00:51:50.680Z,86.85
2019-06-08T00:54:23.481Z,89.23
2019-06-08T00:56:55.790Z,87.67
2019-06-08T00:59:30.362Z,88.48
2019-06-08T01:02:02.650Z,87.90
2019-06-08T01:04:34.790Z,88.90
2019-06-08T01:07:07.047Z,90.32
2019-06-08T01:09:39.019Z,90.49
2019-06-08T01:12:11.208Z,90.80
2019-06-08T01:14:43.319Z,86.24
2019-06-08T01:17:15.354Z,88.44
2019-06-08T01:19:47.927Z,90.08
2019-06-08T01:22:21.488Z,88.88
2019-06-08T01:24:53.617Z,88.04
2019-06-08T01:27:26.109Z,88.55
2019-06-08T01:29:58.192Z,86.42
2019-06-08T01:32:30.585Z,85.51
2019-06-08T01:35:02.780Z,81.20
2019-06-08T01:37:36.084Z,85.46
2019-06-08T01:40:08.680Z,86.71
2019-06-08T01:42:42.397Z,86.96
2019-06-08T01:45:16.490Z,88.75
2019-06-08T01:47:48.747Z,88.81
2019-06-08T01:50:20.730Z,88.74
2019-06-08T01:52:52.887Z,86.14
2019-06-08T01:55:25.184Z,87.82
2019-06-08T01:57:57.386Z,88.78
2019-06-08T02:00:32.513Z,89.49
2019-06-08T02:03:03.464Z,89.04
2019-06-08T02:05:35.643Z,89.49
2019-06-08T02:08:08.039Z,89.21
2019-06-08T02:10:40.156Z,89.74
2019-06-08T02:13:12.464Z,87.72
2019-06-08T02:15:44.663Z,88.57
2019-06-08T02:18:16.934Z,88.01
2019-06-08T02:20:49.099Z,88.98
2019-06-08T02:23:21.380Z,87.82
2019-06-08T02:25:53.566Z,87.36
2019-06-08T02:28:25.793Z,88.10
2019-06-08T02:30:58.047Z,88.13
2019-06-08T02:33:30.395Z,86.12
2019-06-08T02:36:03.135Z,86.29
2019-06-08T02:38:36.080Z,85.53
2019-06-08T02:41:08.439Z,83.94
2019-06-08T02:43:40.789Z,81.91
2019-06-08T02:46:12.876Z,80.26
2019-06-08T02:49:02.301Z,76.18
2019-06-08T02:51:21.239Z,73.33
2019-06-08T02:53:53.618Z,69.48
2019-06-08T02:56:27.628Z,73.83
2019-06-08T02:59:01.454Z,72.84
2019-06-08T03:01:38.410Z,69.30
2019-06-08T03:04:11.894Z,69.07
2019-06-08T03:06:46.056Z,69.28
2019-06-08T03:09:20.794Z,66.54
2019-06-08T03:11:55.479Z,66.77
2019-06-08T03:14:28.032Z,65.39
2019-06-08T03:17:00.132Z,63.40
2019-06-08T03:19:33.290Z,64.68
2019-06-08T03:22:05.615Z,65.09
2019-06-08T03:24:38.721Z,64.28
2019-06-08T03:27:10.836Z,63.64
2019-06-08T03:29:44.014Z,60.05
2019-06-08T03:32:16.400Z,59.99
2019-06-08T03:34:55.666Z,59.00
2019-06-08T03:37:22.256Z,59.29
2019-06-08T03:39:54.306Z,59.70
2019-06-08T03:42:27.321Z,60.09
2019-06-08T03:44:59.468Z,59.28
2019-06-08T03:47:31.456Z,56.02
2019-06-08T03:50:04.852Z,54.37
2019-06-08T03:52:37.757Z,53.29
2019-06-08T03:55:11.194Z,52.71
2019-06-08T03:57:44.087Z,52.86
2019-06-08T04:00:16.411Z,52.90
2019-06-08T04:02:50.113Z,51.40
2019-06-08T04:05:22.380Z,49.88
2019-06-08T04:07:54.469Z,50.11
2019-06-08T04:10:27.583Z,50.45
2019-06-08T04:12:59.641Z,51.22
2019-06-08T04:15:31.905Z,51.71
2019-06-08T04:18:03.922Z,50.96
2019-06-08T04:20:37.839Z,50.69
2019-06-08T04:23:09.780Z,50.39
2019-06-08T04:25:44.784Z,49.66
2019-06-08T04:28:16.622Z,50.58
2019-06-08T04:30:49.873Z,50.51
2019-06-08T04:33:22.151Z,48.94
2019-06-08T04:35:54.272Z,48.12
2019-06-08T04:38:26.188Z,49.85
2019-06-08T04:40:58.238Z,48.21
2019-06-08T04:43:30.267Z,49.91
2019-06-08T04:46:02.300Z,49.94
2019-06-08T04:48:34.647Z,48.42
2019-06-08T04:51:06.809Z,45.79
2019-06-08T04:53:40.698Z,46.42
2019-06-08T04:56:12.701Z,44.88
2019-06-08T04:58:46.828Z,46.85
2019-06-08T05:01:18.609Z,44.26
2019-06-08T05:03:50.955Z,43.24
2019-06-08T05:06:24.152Z,43.65
2019-06-08T05:08:56.247Z,43.38
2019-06-08T05:11:28.438Z,43.73
2019-06-08T05:14:00.674Z,42.51
2019-06-08T05:16:33.005Z,43.60
2019-06-08T05:19:05.094Z,42.09
2019-06-08T05:21:37.342Z,41.72
2019-06-08T05:24:09.501Z,42.53
2019-06-08T05:26:42.419Z,41.04
2019-06-08T05:29:15.691Z,40.67
2019-06-08T05:31:47.686Z,41.17
2019-06-08T05:34:19.753Z,39.65
2019-06-08T05:36:51.950Z,39.45
2019-06-08T05:39:24.026Z,38.10
2019-06-08T05:41:56.842Z,38.93
2019-06-08T05:44:28.910Z,37.70
2019-06-08T05:47:01.066Z,36.40
2019-06-08T05:49:33.176Z,36.17
2019-06-08T05:52:05.508Z,35.08
2019-06-08T05:54:37.767Z,31.94
2019-06-08T05:57:10.009Z,30.24
2019-06-08T05:59:42.178Z,31.84
2019-06-08T06:02:14.276Z,34.04
2019-06-08T06:04:46.577Z,31.97
2019-06-08T06:07:19.873Z,32.60
2019-06-08T06:09:52.261Z,30.35
2019-06-08T06:12:24.375Z,29.63
2019-06-08T06:14:56.416Z,29.96
2019-06-08T06:17:28.814Z,30.10
2019-06-08T06:20:02.365Z,29.10
2019-06-08T06:22:34.493Z,28.89
2019-06-08T06:25:08.016Z,31.64
2019-06-08T06:27:41.362Z,30.04
2019-06-08T06:30:13.802Z,29.29
2019-06-08T06:32:46.085Z,26.66
2019-06-08T06:35:18.312Z,27.28
2019-06-08T06:37:52.063Z,27.79
2019-06-08T06:40:25.911Z,27.05
2019-06-08T06:42:59.477Z,27.11
2019-06-08T06:45:31.588Z,26.72
2019-06-08T06:48:03.603Z,27.35
2019-06-08T06:50:35.672Z,26.55
2019-06-08T06:53:07.803Z,25.57
2019-06-08T06:55:41.255Z,24.79
2019-06-08T06:58:13.306Z,24.13
2019-06-08T07:00:45.516Z,26.01
2019-06-08T07:03:17.620Z,25.09
2019-06-08T07:05:50.000Z,25.01
2019-06-08T07:08:22.035Z,26.39
2019-06-08T07:10:55.344Z,29.86
2019-06-08T07:13:27.574Z,33.03
2019-06-08T07:16:16.922Z,35.54
2019-06-08T07:18:33.332Z,36.92
2019-06-08T07:21:05.470Z,37.29
2019-06-08T07:23:37.587Z,36.66
2019-06-08T07:26:09.668Z,36.02
2019-06-08T07:28:43.416Z,38.27
2019-06-08T07:31:15.595Z,37.30
2019-06-08T07:33:48.699Z,36.76
2019-06-08T07:36:23.012Z,37.37
2019-06-08T07:38:55.510Z,37.99
2019-06-08T07:41:27.875Z,38.26
2019-06-08T07:43:59.997Z,38.97
2019-06-08T07:46:35.021Z,38.74
2019-06-08T07:49:07.623Z,38.98
2019-06-08T07:51:40.078Z,39.05
2019-06-08T07:54:12.301Z,39.85
2019-06-08T07:56:44.377Z,38.05
2019-06-08T07:59:16.559Z,38.45
2019-06-08T08:01:49.868Z,37.77
2019-06-08T08:04:21.927Z,38.70
2019-06-08T08:06:54.569Z,37.88
2019-06-08T08:09:26.895Z,36.93
2019-06-08T08:11:59.628Z,36.72
2019-06-08T08:14:32.052Z,36.88
2019-06-08T08:17:04.159Z,36.42
2019-06-08T08:19:36.396Z,35.41
2019-06-08T08:22:22.101Z,35.00
2019-06-08T08:24:42.206Z,35.59
2019-06-08T08:27:14.313Z,36.14
2019-06-08T08:29:47.591Z,35.30
2019-06-08T08:32:19.904Z,36.92
2019-06-08T08:34:52.187Z,35.55
2019-06-08T08:37:24.220Z,35.74
2019-06-08T08:39:58.567Z,35.87
2019-06-08T08:42:30.225Z,35.32
2019-06-08T08:45:05.057Z,35.68
2019-06-08T08:47:38.689Z,36.44
2019-06-08T08:50:11.152Z,35.95
2019-06-08T08:52:43.180Z,36.07
2019-06-08T08:55:20.280Z,36.88
2019-06-08T08:57:50.713Z,36.05
2019-06-08T09:00:24.562Z,36.06
2019-06-08T09:03:15.911Z,34.51
2019-06-08T09:05:30.763Z,36.58
2019-06-08T09:08:04.024Z,36.96
2019-06-08T09:10:38.269Z,35.48
2019-06-08T09:13:12.069Z,35.33
2019-06-08T09:15:43.886Z,35.07
2019-06-08T09:18:15.942Z,35.92
2019-06-08T09:20:48.656Z,35.84
2019-06-08T09:23:21.903Z,35.08
2019-06-08T09:25:57.329Z,36.04
2019-06-08T09:28:28.535Z,35.53
2019-06-08T09:31:03.673Z,35.26
2019-06-08T09:33:34.825Z,35.96
2019-06-08T09:36:07.911Z,36.22
2019-06-08T09:38:40.731Z,35.69
2019-06-08T09:41:12.784Z,35.13
2019-06-08T09:43:44.803Z,36.48
2019-06-08T09:46:17.860Z,36.09
2019-06-08T09:48:50.803Z,36.00
2019-06-08T09:51:22.909Z,35.80
2019-06-08T09:53:56.105Z,35.87
2019-06-08T09:56:28.648Z,35.14
2019-06-08T09:59:04.027Z,34.72
2019-06-08T10:01:34.419Z,35.64
2019-06-08T10:04:09.307Z,34.48
2019-06-08T10:06:41.473Z,35.88
2019-06-08T10:09:13.542Z,34.84
2019-06-08T10:11:45.718Z,35.79
2019-06-08T10:14:18.730Z,35.16
2019-06-08T10:16:51.220Z,34.22
2019-06-08T10:19:23.409Z,34.53
2019-06-08T10:21:56.811Z,34.54
2019-06-08T10:24:28.995Z,34.56
2019-06-08T10:27:01.435Z,36.29
2019-06-08T10:29:33.621Z,33.66
2019-06-08T10:32:08.890Z,33.13
2019-06-08T10:34:41.430Z,32.69
2019-06-08T10:37:13.868Z,32.93
2019-06-08T10:39:47.850Z,32.98
2019-06-08T10:42:21.112Z,33.47
2019-06-08T10:44:53.193Z,34.29
2019-06-08T10:47:29.541Z,34.05
2019-06-08T10:50:05.466Z,33.25
2019-06-08T10:52:33.987Z,32.97
2019-06-08T10:55:10.531Z,31.72
2019-06-08T10:57:41.717Z,32.03
2019-06-08T11:00:22.684Z,31.85
2019-06-08T11:02:49.338Z,32.23
2019-06-08T11:05:21.467Z,31.15
2019-06-08T11:07:53.534Z,31.50
2019-06-08T11:10:26.500Z,31.51
2019-06-08T11:13:04.421Z,31.23
2019-06-08T11:15:32.319Z,31.36
2019-06-08T11:18:06.929Z,31.34
2019-06-08T11:20:39.093Z,29.83
2019-06-08T11:23:12.523Z,30.64
2019-06-08T11:25:44.838Z,29.86
2019-06-08T11:28:18.572Z,31.03
2019-06-08T11:30:50.740Z,32.95
2019-06-08T11:33:22.875Z,31.51
2019-06-08T11:35:54.995Z,30.41
2019-06-08T11:38:28.859Z,30.68
2019-06-08T11:41:04.056Z,31.11
2019-06-08T11:43:34.577Z,31.15
2019-06-08T11:46:06.760Z,29.43
2019-06-08T11:48:41.379Z,28.99
2019-06-08T11:51:13.192Z,28.96
2019-06-08T11:53:48.197Z,29.38
2019-06-08T11:56:19.190Z,29.25
2019-06-08T11:58:52.727Z,29.60
2019-06-08T12:01:24.680Z,29.81
2019-06-08T12:03:57.978Z,30.53
2019-06-08T12:06:29.976Z,31.42
2019-06-08T12:09:02.676Z,30.38
2019-06-08T12:11:34.929Z,30.97
2019-06-08T12:14:09.295Z,29.96
2019-06-08T12:16:40.601Z,29.60
2019-06-08T12:19:16.653Z,30.11
2019-06-08T12:21:49.601Z,30.58
2019-06-08T12:24:20.083Z,29.61
2019-06-08T12:26:58.931Z,29.65
2019-06-08T12:29:28.248Z,30.58
2019-06-08T12:32:00.536Z,30.54
2019-06-08T12:34:32.878Z,30.12
2019-06-08T12:37:05.376Z,31.02
2019-06-08T12:39:38.698Z,31.14
2019-06-08T12:42:16.846Z,28.71
2019-06-08T12:44:44.602Z,29.17
2019-06-08T12:47:20.908Z,29.66
2019-06-08T12:49:50.383Z,29.15
2019-06-08T12:52:22.652Z,29.76
2019-06-08T12:55:03.423Z,30.03
2019-06-08T12:57:29.529Z,30.27
2019-06-08T13:00:01.643Z,29.18
2019-06-08T13:02:34.865Z,29.38
2019-06-08T13:05:11.593Z,29.77
2019-06-08T13:07:40.984Z,30.51
2019-06-08T13:10:15.310Z,30.38
2019-06-08T13:12:47.917Z,31.21
2019-06-08T13:15:22.181Z,30.07
2019-06-08T13:17:54.133Z,30.81
2019-06-08T13:20:28.240Z,31.03
2019-06-08T13:23:00.457Z,30.96
2019-06-08T13:25:40.286Z,30.96
2019-06-08T13:28:10.896Z,30.55
2019-06-08T13:30:40.292Z,30.37
2019-06-08T13:33:12.357Z,31.53
2019-06-08T13:35:44.430Z,30.78
2019-06-08T13:38:17.311Z,31.02
2019-06-08T13:40:50.312Z,30.58
2019-06-08T13:43:22.762Z,31.41
2019-06-08T13:45:54.924Z,30.73
2019-06-08T13:48:26.887Z,31.39
2019-06-08T13:50:59.294Z,31.27
2019-06-08T13:53:31.919Z,30.81
2019-06-08T13:56:04.026Z,30.79
2019-06-08T13:58:38.091Z,30.95
2019-06-08T14:01:10.217Z,31.62
2019-06-08T14:03:43.626Z,31.17
2019-06-08T14:06:16.571Z,29.21
2019-06-08T14:08:49.893Z,30.16
2019-06-08T14:11:22.624Z,29.87
2019-06-08T14:13:58.368Z,29.36
2019-06-08T14:16:29.916Z,30.26
2019-06-08T14:19:01.987Z,31.20
2019-06-08T14:21:38.753Z,30.70
2019-06-08T14:24:07.865Z,30.87
2019-06-08T14:26:40.001Z,31.87
2019-06-08T14:29:12.050Z,31.13
2019-06-08T14:31:45.067Z,30.90
2019-06-08T14:34:18.686Z,31.29
2019-06-08T14:36:50.855Z,31.50
2019-06-08T14:39:23.541Z,32.27
2019-06-08T14:41:57.835Z,32.14
2019-06-08T14:44:32.214Z,30.84
2019-06-08T14:47:07.965Z,31.51
2019-06-08T14:49:39.394Z,32.48
2019-06-08T14:52:11.724Z,36.43
2019-06-08T14:54:43.759Z,37.79
2019-06-08T14:57:17.828Z,37.62
2019-06-08T14:59:50.350Z,37.08
2019-06-08T15:02:23.508Z,38.15
2019-06-08T15:04:55.707Z,38.26
2019-06-08T15:07:31.345Z,38.27
2019-06-08T15:10:01.668Z,38.74
2019-06-08T15:12:34.127Z,42.19
2019-06-08T15:15:10.783Z,45.81
2019-06-08T15:17:41.123Z,46.83
2019-06-08T15:20:13.189Z,47.00
2019-06-08T15:22:45.191Z,47.96
2019-06-08T15:25:18.531Z,46.59
2019-06-08T15:27:50.751Z,46.75
2019-06-08T15:30:23.081Z,46.63
2019-06-08T15:32:55.230Z,46.57
2019-06-08T15:35:29.382Z,47.57
2019-06-08T15:38:01.576Z,48.81
2019-06-08T15:40:33.770Z,49.68
2019-06-08T15:43:05.782Z,50.48
2019-06-08T15:45:38.687Z,51.42
2019-06-08T15:48:10.725Z,51.84
2019-06-08T15:50:42.723Z,51.71
2019-06-08T15:53:14.918Z,50.61
2019-06-08T15:55:48.765Z,50.83
2019-06-08T15:58:20.829Z,50.82
2019-06-08T16:00:55.696Z,51.03
2019-06-08T16:03:27.420Z,50.32
2019-06-08T16:05:59.654Z,49.88
2019-06-08T16:08:32.327Z,50.12
2019-06-08T16:11:05.570Z,50.49
2019-06-08T16:13:37.687Z,50.29
2019-06-08T16:16:10.558Z,50.83
2019-06-08T16:18:42.680Z,50.49
2019-06-08T16:21:15.968Z,50.74
2019-06-08T16:23:49.110Z,50.38
2019-06-08T16:26:21.383Z,50.20
2019-06-08T16:28:53.339Z,50.52
2019-06-08T16:31:27.034Z,51.20
2019-06-08T16:33:59.180Z,51.83
2019-06-08T16:36:31.508Z,52.10
2019-06-08T16:39:05.115Z,51.94
2019-06-08T16:41:37.228Z,51.90
2019-06-08T16:44:09.296Z,50.70
2019-06-08T16:46:41.353Z,51.23
2019-06-08T16:49:13.504Z,49.75
2019-06-08T16:51:45.621Z,50.53
2019-06-08T16:54:17.794Z,49.34
2019-06-08T16:56:49.957Z,50.07
2019-06-08T16:59:22.132Z,50.57
2019-06-08T17:01:54.217Z,50.66
2019-06-08T17:04:26.316Z,50.95
2019-06-08T17:06:58.308Z,51.39
2019-06-08T17:09:32.378Z,51.75
2019-06-08T17:12:05.384Z,51.34
2019-06-08T17:14:38.635Z,51.67
2019-06-08T17:17:10.891Z,50.32
2019-06-08T17:19:42.930Z,49.38
2019-06-08T17:22:14.932Z,48.30
2019-06-08T17:24:47.108Z,48.73
2019-06-08T17:27:26.670Z,48.53
2019-06-08T17:29:52.859Z,48.02
2019-06-08T17:32:24.857Z,47.84
2019-06-08T17:34:56.889Z,48.20
2019-06-08T17:37:28.875Z,48.63
2019-06-08T17:40:01.964Z,48.81
2019-06-08T17:42:34.781Z,49.26
2019-06-08T17:45:08.264Z,49.50
2019-06-08T17:47:40.688Z,49.44
2019-06-08T17:50:13.094Z,49.11
2019-06-08T17:52:45.139Z,48.89
2019-06-08T17:55:17.223Z,49.85
2019-06-08T17:57:53.440Z,50.09
2019-06-08T18:00:24.515Z,50.90
2019-06-08T18:03:00.717Z,52.03
2019-06-08T18:05:31.635Z,51.77
2019-06-08T18:08:03.611Z,51.97
2019-06-08T18:10:38.076Z,52.50
2019-06-08T18:13:09.366Z,51.42
2019-06-08T18:15:43.730Z,51.41
2019-06-08T18:18:17.632Z,50.79
2019-06-08T18:20:52.108Z,50.84
2019-06-08T18:23:23.690Z,51.59
2019-06-08T18:25:58.064Z,50.77
2019-06-08T18:28:29.703Z,50.60
2019-06-08T18:31:01.920Z,50.95
2019-06-08T18:33:34.707Z,51.01
2019-06-08T18:36:07.847Z,51.08
2019-06-08T18:38:41.381Z,51.63
2019-06-08T18:41:13.634Z,51.87
2019-06-08T18:43:48.503Z,52.28
2019-06-08T18:46:19.507Z,51.39
2019-06-08T18:48:52.081Z,52.54
2019-06-08T18:51:24.302Z,54.29
2019-06-08T18:54:08.758Z,53.97
2019-06-08T18:56:30.410Z,54.00
2019-06-08T18:59:02.393Z,53.84
2019-06-08T19:01:37.913Z,54.22
2019-06-08T19:04:09.328Z,55.33
2019-06-08T19:06:42.643Z,54.65
2019-06-08T19:09:17.150Z,54.54
2019-06-08T19:11:50.196Z,53.54
2019-06-08T19:14:22.415Z,56.30
2019-06-08T19:16:54.948Z,56.94
2019-06-08T19:19:31.046Z,57.52
2019-06-08T19:22:00.828Z,57.82
2019-06-08T19:24:32.713Z,58.70
2019-06-08T19:27:07.688Z,58.66
2019-06-08T19:29:40.917Z,58.91
2019-06-08T19:32:13.634Z,58.64
2019-06-08T19:34:53.174Z,58.63
2019-06-08T19:37:19.420Z,57.92
2019-06-08T19:39:51.394Z,57.77
2019-06-08T19:42:35.611Z,57.54
2019-06-08T19:45:05.065Z,57.69
2019-06-08T19:47:32.107Z,56.09
2019-06-08T19:50:07.624Z,55.02
2019-06-08T19:52:42.100Z,55.28
2019-06-08T19:55:11.759Z,55.80
2019-06-08T19:57:43.916Z,55.76
2019-06-08T20:00:18.009Z,55.49
2019-06-08T20:02:53.325Z,54.98
2019-06-08T20:05:23.605Z,55.16
2019-06-08T20:07:57.526Z,55.23
2019-06-08T20:10:29.512Z,55.94
2019-06-08T20:13:01.530Z,55.99
2019-06-08T20:15:33.484Z,55.30
2019-06-08T20:18:05.777Z,55.39
2019-06-08T20:20:38.237Z,57.04
2019-06-08T20:23:10.357Z,56.81
2019-06-08T20:25:43.144Z,57.36
2019-06-08T20:28:17.304Z,57.74
2019-06-08T20:30:49.137Z,57.75
2019-06-08T20:33:21.185Z,57.08
2019-06-08T20:35:53.914Z,58.18
2019-06-08T20:38:37.214Z,57.79
2019-06-08T20:40:59.638Z,56.79
2019-06-08T20:43:31.711Z,57.97
2019-06-08T20:46:03.845Z,58.12
2019-06-08T20:48:37.823Z,57.96
2019-06-08T20:51:09.683Z,59.13
2019-06-08T20:53:42.376Z,60.11
2019-06-08T20:56:14.360Z,59.95
2019-06-08T20:58:48.349Z,59.75
2019-06-08T21:01:20.130Z,59.82
2019-06-08T21:03:52.793Z,59.80
2019-06-08T21:06:25.088Z,59.66
2019-06-08T21:08:58.581Z,59.79
2019-06-08T21:11:30.840Z,59.95
2019-06-08T21:14:02.920Z,59.76
2019-06-08T21:16:34.883Z,58.68
2019-06-08T21:19:07.245Z,59.71
2019-06-08T21:21:39.434Z,59.89
2019-06-08T21:24:11.508Z,61.07
2019-06-08T21:26:43.505Z,61.15
2019-06-08T21:29:17.591Z,61.50
2019-06-08T21:31:52.263Z,62.76
2019-06-08T21:34:23.042Z,63.27
2019-06-08T21:36:56.568Z,62.83
2019-06-08T21:39:28.950Z,62.41
2019-06-08T21:42:03.113Z,63.23
2019-06-08T21:44:37.253Z,64.05
2019-06-08T21:47:09.621Z,64.15
2019-06-08T21:49:41.633Z,64.62
2019-06-08T21:52:13.624Z,64.50
2019-06-08T21:54:45.669Z,67.87
2019-06-08T21:57:18.531Z,68.42
2019-06-08T22:00:09.713Z,70.99
2019-06-08T22:02:24.616Z,73.32
2019-06-08T22:05:01.638Z,79.80
2019-06-08T22:07:30.645Z,75.41
2019-06-08T22:10:03.249Z,77.95
2019-06-08T22:12:39.851Z,78.00
2019-06-08T22:15:09.690Z,80.69
2019-06-08T22:17:41.803Z,83.05
2019-06-08T22:20:14.268Z,80.04
2019-06-08T22:22:47.292Z,77.66
2019-06-08T22:25:19.961Z,82.59
2019-06-08T22:27:52.544Z,85.11
2019-06-08T22:30:36.407Z,84.65
2019-06-08T22:32:59.879Z,80.32
2019-06-08T22:35:32.048Z,77.67
2019-06-08T22:38:04.135Z,79.02
2019-06-08T22:40:37.123Z,77.52
2019-06-08T22:43:09.577Z,80.25
2019-06-08T22:45:41.623Z,80.41
2019-06-08T22:48:13.672Z,77.79
2019-06-08T22:50:47.704Z,76.07
2019-06-08T22:53:19.369Z,73.45
2019-06-08T22:55:51.425Z,72.10
2019-06-08T22:58:23.387Z,70.52
2019-06-08T23:00:57.026Z,68.69
2019-06-08T23:03:29.145Z,67.91
2019-06-08T23:06:02.692Z,68.98
2019-06-08T23:08:37.326Z,69.88
2019-06-08T23:11:08.783Z,70.32
2019-06-08T23:13:40.734Z,70.83
2019-06-08T23:16:12.844Z,69.43
2019-06-08T23:18:44.893Z,69.19
2019-06-08T23:21:18.091Z,68.90
2019-06-08T23:23:50.307Z,67.53
2019-06-08T23:26:23.363Z,66.86
2019-06-08T23:28:56.081Z,66.12
2019-06-08T23:31:29.091Z,65.54
2019-06-08T23:34:03.924Z,66.17
2019-06-08T23:36:50.309Z,64.96
2019-06-08T23:39:08.747Z,64.70
2019-06-08T23:41:40.909Z,64.35
2019-06-08T23:44:12.854Z,64.44
2019-06-08T23:46:44.872Z,63.53
2019-06-08T23:49:18.683Z,63.65
2019-06-08T23:51:50.849Z,64.12
2019-06-08T23:54:22.901Z,65.02
2019-06-08T23:56:54.893Z,66.99
2019-06-08T23:59:27.709Z,68.28
